Time,TemperatureF,DewpointF,PressureIn,WindDirection,WindDirectionDegrees,WindSpeedMPH,WindSpeedGustMPH,Humidity,HourlyPrecipIn,Conditions,Clouds,dailyrainin,SoftwareType,DateUTC
2013-06-23 00:00:00,60.0,-99.9,-100.00,South,185,3.0,10.0,-999,-99.99,,,-99.99,,2013-06-23 06:00:00,
2013-06-23 00:52:00,60.0,-99.9,-100.00,South,185,3.0,10.0,-999,-99.99,,,-99.99,,2013-06-23 06:52:00,
2013-06-23 01:00:00,59.0,-99.9,-100.00,South,185,3.0,15.0,-999,-99.99,,,-99.99,,2013-06-23 07:00:00,
2013-06-23 01:54:00,59.0,-99.9,-100.00,South,185,3.0,15.0,-999,-99.99,,,-99.99,,2013-06-23 07:54:00,
2013-06-23 02:54:00,66.0,-99.9,-100.00,South,185,10.0,26.0,-999,-99.99,,,-99.99,,2013-06-23 08:54:00,
2013-06-23 03:02:00,66.0,-99.9,-100.00,South,185,10.0,26.0,-999,-99.99,,,-99.99,,2013-06-23 09:02:00,
2013-06-23 04:00:00,53.0,-99.9,-100.00,South,185,4.0,9.0,-999,-99.99,,,-99.99,,2013-06-23 10:00:00,
2013-06-23 06:00:00,51.0,-99.9,-100.00,South,185,8.0,13.0,-999,-99.99,,,-99.99,,2013-06-23 12:00:00,
2013-06-23 07:05:00,55.0,-99.9,-100.00,South,185,13.0,17.0,-999,-99.99,,,-99.99,,2013-06-23 13:05:00,
2013-06-23 07:54:00,55.0,-99.9,-100.00,South,185,13.0,17.0,-999,-99.99,,,-99.99,,2013-06-23 13:54:00,
2013-06-23 08:05:00,57.0,-99.9,-100.00,South,185,9.0,15.0,-999,-99.99,,,-99.99,,2013-06-23 14:05:00,
2013-06-23 08:52:00,57.0,-99.9,-100.00,South,185,9.0,15.0,-999,-99.99,,,-99.99,,2013-06-23 14:52:00,
2013-06-23 09:00:00,60.0,-99.9,-100.00,South,185,7.0,14.0,-999,-99.99,,,-99.99,,2013-06-23 15:00:00,
2013-06-23 09:53:00,60.0,-99.9,-100.00,South,185,7.0,14.0,-999,-99.99,,,-99.99,,2013-06-23 15:53:00,
2013-06-23 10:00:00,68.0,-99.9,-100.00,South,185,7.0,9.0,-999,-99.99,,,-99.99,,2013-06-23 16:00:00,
2013-06-23 10:53:00,68.0,-99.9,-100.00,South,185,7.0,9.0,-999,-99.99,,,-99.99,,2013-06-23 16:53:00,
2013-06-23 11:53:00,71.0,-99.9,-100.00,South,185,7.0,11.0,-999,-99.99,,,-99.99,,2013-06-23 17:53:00,
2013-06-23 12:02:00,71.0,-99.9,-100.00,South,185,7.0,11.0,-999,-99.99,,,-99.99,,2013-06-23 18:02:00,
2013-06-23 12:53:00,77.0,-99.9,-100.00,South,185,8.0,11.0,-999,-99.99,,,-99.99,,2013-06-23 18:53:00,
2013-06-23 13:01:00,77.0,-99.9,-100.00,South,185,8.0,11.0,-999,-99.99,,,-99.99,,2013-06-23 19:01:00,
2013-06-23 13:11:00,77.0,-99.9,-100.00,South,185,8.0,11.0,-999,-99.99,,,-99.99,,2013-06-23 19:11:00,
2013-06-23 13:53:00,77.0,-99.9,-100.00,South,185,4.0,12.0,-999,-99.99,,,-99.99,,2013-06-23 19:53:00,
2013-06-23 14:00:00,77.0,-99.9,-100.00,South,185,6.0,14.0,-999,-99.99,,,-99.99,,2013-06-23 20:00:00,
2013-06-23 14:02:00,77.0,-99.9,-100.00,South,185,4.0,12.0,-999,-99.99,,,-99.99,,2013-06-23 20:02:00,
2013-06-23 14:30:00,78.0,-99.9,-100.00,South,185,7.0,11.0,-999,-99.99,,,-99.99,,2013-06-23 20:30:00,
2013-06-23 14:53:00,77.0,-99.9,-100.00,South,185,6.0,14.0,-999,-99.99,,,-99.99,,2013-06-23 20:53:00,
2013-06-23 15:52:00,80.0,-99.9,-100.00,South,185,7.0,10.0,-999,-99.99,,,-99.99,,2013-06-23 21:52:00,
2013-06-23 16:01:00,80.0,-99.9,-100.00,South,185,7.0,10.0,-999,-99.99,,,-99.99,,2013-06-23 22:01:00,
2013-06-23 16:53:00,86.0,-99.9,-100.00,South,185,7.0,9.0,-999,-99.99,,,-99.99,,2013-06-23 22:53:00,
2013-06-23 17:00:00,84.0,-99.9,-100.00,South,185,8.0,13.0,-999,-99.99,,,-99.99,,2013-06-23 23:00:00,
2013-06-23 17:01:00,86.0,-99.9,-100.00,South,185,7.0,9.0,-999,-99.99,,,-99.99,,2013-06-23 23:01:00,
2013-06-23 17:52:00,84.0,-99.9,-100.00,South,185,8.0,13.0,-999,-99.99,,,-99.99,,2013-06-23 23:52:00,
2013-06-23 18:00:00,87.0,-99.9,-100.00,SW,230,1.0,8.0,-999,-99.99,,,-99.99,,2013-06-24 00:00:00,
2013-06-23 18:52:00,87.0,-99.9,-100.00,SW,230,1.0,8.0,-999,-99.99,,,-99.99,,2013-06-24 00:52:00,
2013-06-23 19:00:00,80.0,-99.9,-100.00,South,185,5.0,9.0,-999,-99.99,,,-99.99,,2013-06-24 01:00:00,
2013-06-23 19:53:00,80.0,-99.9,-100.00,South,185,5.0,9.0,-999,-99.99,,,-99.99,,2013-06-24 01:53:00,
2013-06-23 20:00:00,71.0,-99.9,-100.00,South,185,4.0,6.0,-999,-99.99,,,-99.99,,2013-06-24 02:00:00,
2013-06-23 20:53:00,71.0,-99.9,-100.00,South,185,4.0,6.0,-999,-99.99,,,-99.99,,2013-06-24 02:53:00,
2013-06-23 21:00:00,68.0,-99.9,-100.00,South,185,5.0,6.0,-999,-99.99,,,-99.99,,2013-06-24 03:00:00,
2013-06-23 21:53:00,68.0,-99.9,-100.00,South,185,5.0,6.0,-999,-99.99,,,-99.99,,2013-06-24 03:53:00,
2013-06-23 22:00:00,66.0,-99.9,-100.00,South,185,5.0,10.0,-999,-99.99,,,-99.99,,2013-06-24 04:00:00,
2013-06-23 22:53:00,66.0,-99.9,-100.00,South,185,5.0,10.0,-999,-99.99,,,-99.99,,2013-06-24 04:53:00,
2013-06-23 23:00:00,66.0,-99.9,-100.00,South,185,3.0,7.0,-999,-99.99,,,-99.99,,2013-06-24 05:00:00,
2013-06-23 23:59:00,66.0,-99.9,-100.00,South,185,3.0,7.0,-999,-99.99,,,-99.99,,2013-06-24 05:59:00,